sensor_id;sensor_type;location;lat;lon;timestamp;P1;durP1;ratioP1;P2;durP2;ratioP2
64966;SDS011;51710;38.732;-121.358;2023-04-01T00:00:59;6.05;;;0.98;;
64966;SDS011;51710;38.732;-121.358;2023-04-01T00:03:26;5.15;;;2.00;;
64966;SDS011;51710;38.732;-121.358;2023-04-01T00:05:53;4.63;;;1.70;;
64966;SDS011;51710;38.732;-121.358;2023-04-01T00:08:21;6.60;;;1.50;;
64966;SDS011;51710;38.732;-121.358;2023-04-01T00:10:47;5.32;;;1.40;;
64966;SDS011;51710;38.732;-121.358;2023-04-01T00:13:14;3.25;;;0.90;;
64966;SDS011;51710;38.732;-121.358;2023-04-01T00:15:41;3.25;;;0.80;;
64966;SDS011;51710;38.732;-121.358;2023-04-01T00:18:08;4.00;;;1.10;;
64966;SDS011;51710;38.732;-121.358;2023-04-01T00:20:34;3.92;;;1.40;;
64966;SDS011;51710;38.732;-121.358;2023-04-01T00:23:00;6.40;;;1.10;;
64966;SDS011;51710;38.732;-121.358;2023-04-01T00:25:27;3.47;;;0.90;;
64966;SDS011;51710;38.732;-121.358;2023-04-01T00:27:54;4.63;;;1.20;;
64966;SDS011;51710;38.732;-121.358;2023-04-01T00:30:20;4.88;;;1.50;;
64966;SDS011;51710;38.732;-121.358;2023-04-01T00:32:46;2.75;;;0.95;;
64966;SDS011;51710;38.732;-121.358;2023-04-01T00:35:16;5.28;;;1.45;;
64966;SDS011;51710;38.732;-121.358;2023-04-01T00:37:43;6.50;;;1.90;;
64966;SDS011;51710;38.732;-121.358;2023-04-01T00:40:20;4.07;;;1.30;;
64966;SDS011;51710;38.732;-121.358;2023-04-01T00:42:51;3.95;;;0.98;;
64966;SDS011;51710;38.732;-121.358;2023-04-01T00:45:25;2.53;;;0.80;;
64966;SDS011;51710;38.732;-121.358;2023-04-01T00:48:01;4.45;;;1.02;;
64966;SDS011;51710;38.732;-121.358;2023-04-01T00:50:33;3.65;;;1.30;;
64966;SDS011;51710;38.732;-121.358;2023-04-01T00:53:00;4.25;;;1.17;;
64966;SDS011;51710;38.732;-121.358;2023-04-01T00:55:28;4.97;;;1.33;;
64966;SDS011;51710;38.732;-121.358;2023-04-01T00:57:57;4.95;;;1.20;;
64966;SDS011;51710;38.732;-121.358;2023-04-01T01:00:25;4.20;;;2.03;;
64966;SDS011;51710;38.732;-121.358;2023-04-01T01:02:52;5.75;;;1.55;;
64966;SDS011;51710;38.732;-121.358;2023-04-01T01:05:19;3.72;;;1.23;;
64966;SDS011;51710;38.732;-121.358;2023-04-01T01:10:57;3.58;;;1.60;;
64966;SDS011;51710;38.732;-121.358;2023-04-01T01:13:30;3.90;;;0.93;;
64966;SDS011;51710;38.732;-121.358;2023-04-01T01:16:07;4.70;;;1.55;;
64966;SDS011;51710;38.732;-121.358;2023-04-01T01:18:44;5.78;;;1.52;;
64966;SDS011;51710;38.732;-121.358;2023-04-01T01:24:03;4.80;;;1.50;;
64966;SDS011;51710;38.732;-121.358;2023-04-01T01:35:38;5.68;;;1.52;;
64966;SDS011;51710;38.732;-121.358;2023-04-01T01:38:11;4.55;;;1.42;;
64966;SDS011;51710;38.732;-121.358;2023-04-01T01:40:42;5.35;;;1.40;;
64966;SDS011;51710;38.732;-121.358;2023-04-01T01:43:15;4.28;;;1.27;;
64966;SDS011;51710;38.732;-121.358;2023-04-01T01:45:47;7.53;;;1.73;;
64966;SDS011;51710;38.732;-121.358;2023-04-01T01:48:16;6.57;;;1.27;;
64966;SDS011;51710;38.732;-121.358;2023-04-01T01:50:43;6.70;;;1.70;;
64966;SDS011;51710;38.732;-121.358;2023-04-01T01:53:12;8.98;;;1.55;;
64966;SDS011;51710;38.732;-121.358;2023-04-01T01:55:41;4.85;;;1.73;;
64966;SDS011;51710;38.732;-121.358;2023-04-01T01:58:30;6.18;;;1.00;;
64966;SDS011;51710;38.732;-121.358;2023-04-01T02:01:09;6.15;;;1.30;;
64966;SDS011;51710;38.732;-121.358;2023-04-01T02:03:39;6.00;;;1.10;;
64966;SDS011;51710;38.732;-121.358;2023-04-01T02:06:07;7.03;;;2.25;;
64966;SDS011;51710;38.732;-121.358;2023-04-01T02:08:44;7.43;;;2.10;;
64966;SDS011;51710;38.732;-121.358;2023-04-01T02:11:17;3.63;;;1.27;;
64966;SDS011;51710;38.732;-121.358;2023-04-01T02:14:10;4.03;;;1.58;;
64966;SDS011;51710;38.732;-121.358;2023-04-01T02:19:13;3.80;;;1.20;;
64966;SDS011;51710;38.732;-121.358;2023-04-01T02:21:50;5.38;;;1.20;;
64966;SDS011;51710;38.732;-121.358;2023-04-01T02:24:21;5.82;;;1.10;;
64966;SDS011;51710;38.732;-121.358;2023-04-01T02:26:50;3.13;;;0.80;;
64966;SDS011;51710;38.732;-121.358;2023-04-01T02:29:21;6.32;;;1.42;;
64966;SDS011;51710;38.732;-121.358;2023-04-01T02:31:50;2.28;;;0.98;;
64966;SDS011;51710;38.732;-121.358;2023-04-01T02:34:19;5.07;;;1.40;;
64966;SDS011;51710;38.732;-121.358;2023-04-01T02:36:47;6.07;;;1.00;;
64966;SDS011;51710;38.732;-121.358;2023-04-01T02:39:14;5.60;;;1.50;;
64966;SDS011;51710;38.732;-121.358;2023-04-01T02:41:42;5.35;;;1.55;;
64966;SDS011;51710;38.732;-121.358;2023-04-01T02:44:10;3.90;;;1.40;;
64966;SDS011;51710;38.732;-121.358;2023-04-01T02:46:38;3.53;;;1.20;;
64966;SDS011;51710;38.732;-121.358;2023-04-01T02:49:04;5.07;;;1.17;;
64966;SDS011;51710;38.732;-121.358;2023-04-01T02:51:32;4.55;;;1.20;;
64966;SDS011;51710;38.732;-121.358;2023-04-01T02:53:59;4.68;;;1.25;;
64966;SDS011;51710;38.732;-121.358;2023-04-01T02:56:25;6.55;;;1.80;;
64966;SDS011;51710;38.732;-121.358;2023-04-01T02:58:52;4.88;;;1.05;;
64966;SDS011;51710;38.732;-121.358;2023-04-01T03:01:19;3.45;;;1.15;;
64966;SDS011;51710;38.732;-121.358;2023-04-01T03:03:46;3.13;;;1.30;;
64966;SDS011;51710;38.732;-121.358;2023-04-01T03:06:13;3.83;;;1.45;;
64966;SDS011;51710;38.732;-121.358;2023-04-01T03:08:40;7.18;;;1.50;;
64966;SDS011;51710;38.732;-121.358;2023-04-01T03:11:07;6.50;;;1.33;;
64966;SDS011;51710;38.732;-121.358;2023-04-01T03:13:35;5.85;;;1.58;;
64966;SDS011;51710;38.732;-121.358;2023-04-01T03:16:01;5.57;;;1.90;;
64966;SDS011;51710;38.732;-121.358;2023-04-01T03:18:28;5.00;;;1.80;;
64966;SDS011;51710;38.732;-121.358;2023-04-01T03:20:54;3.25;;;1.50;;
64966;SDS011;51710;38.732;-121.358;2023-04-01T03:23:21;5.45;;;1.40;;
64966;SDS011;51710;38.732;-121.358;2023-04-01T03:25:49;8.27;;;1.90;;
64966;SDS011;51710;38.732;-121.358;2023-04-01T03:28:16;6.78;;;1.63;;
64966;SDS011;51710;38.732;-121.358;2023-04-01T03:30:42;5.82;;;1.42;;
64966;SDS011;51710;38.732;-121.358;2023-04-01T03:33:08;7.25;;;1.70;;
64966;SDS011;51710;38.732;-121.358;2023-04-01T03:35:34;7.93;;;1.90;;
64966;SDS011;51710;38.732;-121.358;2023-04-01T03:38:01;5.88;;;1.83;;
64966;SDS011;51710;38.732;-121.358;2023-04-01T03:40:28;7.15;;;1.85;;
64966;SDS011;51710;38.732;-121.358;2023-04-01T03:42:54;5.72;;;1.73;;
64966;SDS011;51710;38.732;-121.358;2023-04-01T03:45:21;7.10;;;1.80;;
64966;SDS011;51710;38.732;-121.358;2023-04-01T03:47:47;5.72;;;1.63;;
64966;SDS011;51710;38.732;-121.358;2023-04-01T03:50:13;7.05;;;1.90;;
64966;SDS011;51710;38.732;-121.358;2023-04-01T03:52:40;7.13;;;2.05;;
64966;SDS011;51710;38.732;-121.358;2023-04-01T03:55:06;4.57;;;1.75;;
64966;SDS011;51710;38.732;-121.358;2023-04-01T03:57:33;7.57;;;2.42;;
64966;SDS011;51710;38.732;-121.358;2023-04-01T03:59:59;5.00;;;2.25;;
64966;SDS011;51710;38.732;-121.358;2023-04-01T04:02:25;5.03;;;1.60;;
64966;SDS011;51710;38.732;-121.358;2023-04-01T04:04:52;5.60;;;1.75;;
64966;SDS011;51710;38.732;-121.358;2023-04-01T04:07:18;6.10;;;1.95;;
64966;SDS011;51710;38.732;-121.358;2023-04-01T04:09:44;6.60;;;1.98;;
64966;SDS011;51710;38.732;-121.358;2023-04-01T04:12:10;7.43;;;2.28;;
64966;SDS011;51710;38.732;-121.358;2023-04-01T04:14:36;8.15;;;3.30;;
64966;SDS011;51710;38.732;-121.358;2023-04-01T04:17:03;4.70;;;2.50;;
64966;SDS011;51710;38.732;-121.358;2023-04-01T04:19:31;8.45;;;2.88;;
64966;SDS011;51710;38.732;-121.358;2023-04-01T04:21:59;7.35;;;2.13;;
64966;SDS011;51710;38.732;-121.358;2023-04-01T04:24:26;6.85;;;2.20;;
64966;SDS011;51710;38.732;-121.358;2023-04-01T04:26:52;7.55;;;2.40;;
64966;SDS011;51710;38.732;-121.358;2023-04-01T04:29:19;8.45;;;2.03;;
64966;SDS011;51710;38.732;-121.358;2023-04-01T04:31:45;7.45;;;2.28;;
64966;SDS011;51710;38.732;-121.358;2023-04-01T04:34:11;8.73;;;2.03;;
64966;SDS011;51710;38.732;-121.358;2023-04-01T04:36:37;6.30;;;1.90;;
64966;SDS011;51710;38.732;-121.358;2023-04-01T04:39:04;7.15;;;1.90;;
64966;SDS011;51710;38.732;-121.358;2023-04-01T04:41:30;5.55;;;1.75;;
64966;SDS011;51710;38.732;-121.358;2023-04-01T04:43:56;5.07;;;2.60;;
64966;SDS011;51710;38.732;-121.358;2023-04-01T04:46:23;6.22;;;1.92;;
64966;SDS011;51710;38.732;-121.358;2023-04-01T04:48:50;4.05;;;1.70;;
64966;SDS011;51710;38.732;-121.358;2023-04-01T04:51:17;6.82;;;2.03;;
64966;SDS011;51710;38.732;-121.358;2023-04-01T04:53:46;10.10;;;2.15;;
64966;SDS011;51710;38.732;-121.358;2023-04-01T04:56:16;6.65;;;1.95;;
64966;SDS011;51710;38.732;-121.358;2023-04-01T04:58:44;5.85;;;1.90;;
64966;SDS011;51710;38.732;-121.358;2023-04-01T05:01:12;9.73;;;2.13;;
64966;SDS011;51710;38.732;-121.358;2023-04-01T05:03:40;5.50;;;2.28;;
64966;SDS011;51710;38.732;-121.358;2023-04-01T05:06:08;4.90;;;1.88;;
64966;SDS011;51710;38.732;-121.358;2023-04-01T05:08:35;6.00;;;2.35;;
64966;SDS011;51710;38.732;-121.358;2023-04-01T05:11:04;10.43;;;3.40;;
64966;SDS011;51710;38.732;-121.358;2023-04-01T05:13:35;7.85;;;3.55;;
64966;SDS011;51710;38.732;-121.358;2023-04-01T05:16:02;7.28;;;2.85;;
64966;SDS011;51710;38.732;-121.358;2023-04-01T05:18:28;9.25;;;3.42;;
64966;SDS011;51710;38.732;-121.358;2023-04-01T05:20:55;9.18;;;3.25;;
64966;SDS011;51710;38.732;-121.358;2023-04-01T05:23:21;8.63;;;3.08;;
64966;SDS011;51710;38.732;-121.358;2023-04-01T05:25:49;7.65;;;3.28;;
64966;SDS011;51710;38.732;-121.358;2023-04-01T05:28:16;6.05;;;2.65;;
64966;SDS011;51710;38.732;-121.358;2023-04-01T05:30:43;11.18;;;3.42;;
64966;SDS011;51710;38.732;-121.358;2023-04-01T05:33:10;7.53;;;3.03;;
64966;SDS011;51710;38.732;-121.358;2023-04-01T05:35:37;8.05;;;2.85;;
64966;SDS011;51710;38.732;-121.358;2023-04-01T05:38:03;6.63;;;2.70;;
64966;SDS011;51710;38.732;-121.358;2023-04-01T05:40:30;9.82;;;2.78;;
64966;SDS011;51710;38.732;-121.358;2023-04-01T05:42:56;8.10;;;3.10;;
64966;SDS011;51710;38.732;-121.358;2023-04-01T05:45:22;8.93;;;3.05;;
64966;SDS011;51710;38.732;-121.358;2023-04-01T05:47:49;9.52;;;3.08;;
64966;SDS011;51710;38.732;-121.358;2023-04-01T05:50:15;10.32;;;4.00;;
64966;SDS011;51710;38.732;-121.358;2023-04-01T05:52:42;10.68;;;3.70;;
64966;SDS011;51710;38.732;-121.358;2023-04-01T05:55:08;7.60;;;4.03;;
64966;SDS011;51710;38.732;-121.358;2023-04-01T05:57:34;8.98;;;3.53;;
64966;SDS011;51710;38.732;-121.358;2023-04-01T06:00:01;12.77;;;3.97;;
64966;SDS011;51710;38.732;-121.358;2023-04-01T06:02:28;18.73;;;8.85;;
64966;SDS011;51710;38.732;-121.358;2023-04-01T06:04:56;36.83;;;18.02;;
64966;SDS011;51710;38.732;-121.358;2023-04-01T06:07:37;59.13;;;28.63;;
64966;SDS011;51710;38.732;-121.358;2023-04-01T06:10:09;31.10;;;16.13;;
64966;SDS011;51710;38.732;-121.358;2023-04-01T06:12:45;22.63;;;10.73;;
64966;SDS011;51710;38.732;-121.358;2023-04-01T06:15:33;15.45;;;7.65;;
64966;SDS011;51710;38.732;-121.358;2023-04-01T06:24:01;8.85;;;3.50;;
64966;SDS011;51710;38.732;-121.358;2023-04-01T06:37:26;4.22;;;2.20;;
64966;SDS011;51710;38.732;-121.358;2023-04-01T06:42:43;5.45;;;2.80;;
64966;SDS011;51710;38.732;-121.358;2023-04-01T06:48:34;10.93;;;3.00;;
64966;SDS011;51710;38.732;-121.358;2023-04-01T06:51:38;7.80;;;2.28;;
64966;SDS011;51710;38.732;-121.358;2023-04-01T06:54:25;9.23;;;3.03;;
64966;SDS011;51710;38.732;-121.358;2023-04-01T06:56:56;5.40;;;2.63;;
64966;SDS011;51710;38.732;-121.358;2023-04-01T06:59:30;5.75;;;2.53;;
64966;SDS011;51710;38.732;-121.358;2023-04-01T07:04:37;8.88;;;2.85;;
64966;SDS011;51710;38.732;-121.358;2023-04-01T07:10:02;8.93;;;2.42;;
64966;SDS011;51710;38.732;-121.358;2023-04-01T07:14:58;6.88;;;2.15;;
64966;SDS011;51710;38.732;-121.358;2023-04-01T07:17:30;7.00;;;2.40;;
64966;SDS011;51710;38.732;-121.358;2023-04-01T07:22:52;8.23;;;2.42;;
64966;SDS011;51710;38.732;-121.358;2023-04-01T07:25:43;11.13;;;3.33;;
64966;SDS011;51710;38.732;-121.358;2023-04-01T07:28:14;9.52;;;2.40;;
64966;SDS011;51710;38.732;-121.358;2023-04-01T07:39:08;6.35;;;2.80;;
64966;SDS011;51710;38.732;-121.358;2023-04-01T07:42:06;5.55;;;2.58;;
64966;SDS011;51710;38.732;-121.358;2023-04-01T07:44:47;6.75;;;2.83;;
64966;SDS011;51710;38.732;-121.358;2023-04-01T07:47:19;8.52;;;3.00;;
64966;SDS011;51710;38.732;-121.358;2023-04-01T07:52:51;9.50;;;3.60;;
64966;SDS011;51710;38.732;-121.358;2023-04-01T07:55:39;7.53;;;3.65;;
64966;SDS011;51710;38.732;-121.358;2023-04-01T07:58:38;10.40;;;3.88;;
64966;SDS011;51710;38.732;-121.358;2023-04-01T08:22:48;10.02;;;4.03;;
64966;SDS011;51710;38.732;-121.358;2023-04-01T08:25:23;7.80;;;3.28;;
64966;SDS011;51710;38.732;-121.358;2023-04-01T08:28:09;10.43;;;3.63;;
64966;SDS011;51710;38.732;-121.358;2023-04-01T08:33:30;9.52;;;3.63;;
64966;SDS011;51710;38.732;-121.358;2023-04-01T08:38:43;7.82;;;4.03;;
64966;SDS011;51710;38.732;-121.358;2023-04-01T08:41:34;9.55;;;3.80;;
64966;SDS011;51710;38.732;-121.358;2023-04-01T08:50:06;7.85;;;3.60;;
64966;SDS011;51710;38.732;-121.358;2023-04-01T08:52:44;8.55;;;4.15;;
64966;SDS011;51710;38.732;-121.358;2023-04-01T09:06:06;8.90;;;3.83;;
64966;SDS011;51710;38.732;-121.358;2023-04-01T09:14:35;7.28;;;3.58;;
64966;SDS011;51710;38.732;-121.358;2023-04-01T09:29:05;8.98;;;3.67;;
64966;SDS011;51710;38.732;-121.358;2023-04-01T09:31:47;9.05;;;3.65;;
64966;SDS011;51710;38.732;-121.358;2023-04-01T09:34:44;8.20;;;3.53;;
64966;SDS011;51710;38.732;-121.358;2023-04-01T09:45:26;8.05;;;3.38;;
64966;SDS011;51710;38.732;-121.358;2023-04-01T09:48:41;8.07;;;3.47;;
64966;SDS011;51710;38.732;-121.358;2023-04-01T09:51:23;7.47;;;3.35;;
64966;SDS011;51710;38.732;-121.358;2023-04-01T10:08:23;8.45;;;2.47;;
64966;SDS011;51710;38.732;-121.358;2023-04-01T10:11:15;6.72;;;2.40;;
64966;SDS011;51710;38.732;-121.358;2023-04-01T10:16:53;9.20;;;2.72;;
64966;SDS011;51710;38.732;-121.358;2023-04-01T10:28:05;6.43;;;2.38;;
64966;SDS011;51710;38.732;-121.358;2023-04-01T10:44:50;5.13;;;2.40;;
64966;SDS011;51710;38.732;-121.358;2023-04-01T10:50:31;7.05;;;1.92;;
64966;SDS011;51710;38.732;-121.358;2023-04-01T10:53:25;7.30;;;2.33;;
64966;SDS011;51710;38.732;-121.358;2023-04-01T10:56:15;7.93;;;2.45;;
64966;SDS011;51710;38.732;-121.358;2023-04-01T11:07:58;8.27;;;2.67;;
64966;SDS011;51710;38.732;-121.358;2023-04-01T11:35:43;6.20;;;2.88;;
64966;SDS011;51710;38.732;-121.358;2023-04-01T11:41:32;5.85;;;2.40;;
64966;SDS011;51710;38.732;-121.358;2023-04-01T11:44:19;7.70;;;2.60;;
64966;SDS011;51710;38.732;-121.358;2023-04-01T11:49:28;6.50;;;2.40;;
64966;SDS011;51710;38.732;-121.358;2023-04-01T11:52:16;4.85;;;2.20;;
64966;SDS011;51710;38.732;-121.358;2023-04-01T11:57:43;7.18;;;3.10;;
64966;SDS011;51710;38.732;-121.358;2023-04-01T12:00:31;6.95;;;2.17;;
64966;SDS011;51710;38.732;-121.358;2023-04-01T12:06:30;5.72;;;2.42;;
64966;SDS011;51710;38.732;-121.358;2023-04-01T12:11:49;4.43;;;2.03;;
64966;SDS011;51710;38.732;-121.358;2023-04-01T12:17:31;6.32;;;2.13;;
64966;SDS011;51710;38.732;-121.358;2023-04-01T12:26:10;7.22;;;2.00;;
64966;SDS011;51710;38.732;-121.358;2023-04-01T12:40:36;6.18;;;2.17;;
64966;SDS011;51710;38.732;-121.358;2023-04-01T12:45:49;5.10;;;1.83;;
64966;SDS011;51710;38.732;-121.358;2023-04-01T12:59:41;4.90;;;1.88;;
64966;SDS011;51710;38.732;-121.358;2023-04-01T13:02:36;6.03;;;1.98;;
64966;SDS011;51710;38.732;-121.358;2023-04-01T13:08:13;3.50;;;1.80;;
64966;SDS011;51710;38.732;-121.358;2023-04-01T13:11:16;4.25;;;2.05;;
64966;SDS011;51710;38.732;-121.358;2023-04-01T13:14:13;3.88;;;1.52;;
64966;SDS011;51710;38.732;-121.358;2023-04-01T13:22:38;5.68;;;1.80;;
64966;SDS011;51710;38.732;-121.358;2023-04-01T13:25:31;5.15;;;1.55;;
64966;SDS011;51710;38.732;-121.358;2023-04-01T13:28:13;6.88;;;2.00;;
64966;SDS011;51710;38.732;-121.358;2023-04-01T14:12:04;7.88;;;2.20;;
64966;SDS011;51710;38.732;-121.358;2023-04-01T14:20:13;5.75;;;1.95;;
64966;SDS011;51710;38.732;-121.358;2023-04-01T14:28:35;4.57;;;1.77;;
64966;SDS011;51710;38.732;-121.358;2023-04-01T14:33:51;3.95;;;1.85;;
64966;SDS011;51710;38.732;-121.358;2023-04-01T14:36:50;6.28;;;1.90;;
64966;SDS011;51710;38.732;-121.358;2023-04-01T14:39:49;7.72;;;2.03;;
64966;SDS011;51710;38.732;-121.358;2023-04-01T14:45:54;3.97;;;1.83;;
64966;SDS011;51710;38.732;-121.358;2023-04-01T14:59:29;6.32;;;2.13;;
64966;SDS011;51710;38.732;-121.358;2023-04-01T15:04:37;4.93;;;2.08;;
64966;SDS011;51710;38.732;-121.358;2023-04-01T15:07:29;7.80;;;3.58;;
64966;SDS011;51710;38.732;-121.358;2023-04-01T15:13:49;9.68;;;4.32;;
64966;SDS011;51710;38.732;-121.358;2023-04-01T15:25:22;5.82;;;1.77;;
64966;SDS011;51710;38.732;-121.358;2023-04-01T15:31:14;3.08;;;1.30;;
64966;SDS011;51710;38.732;-121.358;2023-04-01T15:36:44;6.55;;;1.60;;
64966;SDS011;51710;38.732;-121.358;2023-04-01T15:52:57;6.65;;;1.30;;
64966;SDS011;51710;38.732;-121.358;2023-04-01T15:55:43;4.15;;;1.40;;
64966;SDS011;51710;38.732;-121.358;2023-04-01T15:58:48;4.72;;;1.33;;
64966;SDS011;51710;38.732;-121.358;2023-04-01T16:01:41;3.40;;;1.60;;
64966;SDS011;51710;38.732;-121.358;2023-04-01T16:04:22;5.10;;;2.10;;
64966;SDS011;51710;38.732;-121.358;2023-04-01T16:10:21;5.10;;;1.35;;
64966;SDS011;51710;38.732;-121.358;2023-04-01T16:18:32;3.55;;;1.15;;
64966;SDS011;51710;38.732;-121.358;2023-04-01T16:21:33;7.40;;;1.40;;
64966;SDS011;51710;38.732;-121.358;2023-04-01T16:24:22;4.20;;;1.88;;
64966;SDS011;51710;38.732;-121.358;2023-04-01T16:40:13;3.83;;;1.50;;
64966;SDS011;51710;38.732;-121.358;2023-04-01T16:43:23;4.43;;;1.40;;
64966;SDS011;51710;38.732;-121.358;2023-04-01T17:02:36;4.65;;;1.55;;
64966;SDS011;51710;38.732;-121.358;2023-04-01T17:05:09;4.75;;;1.33;;
64966;SDS011;51710;38.732;-121.358;2023-04-01T17:07:48;5.47;;;1.30;;
64966;SDS011;51710;38.732;-121.358;2023-04-01T17:13:14;4.20;;;1.30;;
64966;SDS011;51710;38.732;-121.358;2023-04-01T17:18:27;5.57;;;1.00;;
64966;SDS011;51710;38.732;-121.358;2023-04-01T17:21:02;4.15;;;1.00;;
64966;SDS011;51710;38.732;-121.358;2023-04-01T17:23:34;2.85;;;1.10;;
64966;SDS011;51710;38.732;-121.358;2023-04-01T17:26:39;4.60;;;1.00;;
64966;SDS011;51710;38.732;-121.358;2023-04-01T17:34:57;5.35;;;1.27;;
64966;SDS011;51710;38.732;-121.358;2023-04-01T17:40:17;4.38;;;0.95;;
64966;SDS011;51710;38.732;-121.358;2023-04-01T17:51:07;5.93;;;1.23;;
64966;SDS011;51710;38.732;-121.358;2023-04-01T17:56:47;3.25;;;0.90;;
64966;SDS011;51710;38.732;-121.358;2023-04-01T17:59:43;3.95;;;0.80;;
64966;SDS011;51710;38.732;-121.358;2023-04-01T18:02:39;3.63;;;1.20;;
64966;SDS011;51710;38.732;-121.358;2023-04-01T18:05:30;5.53;;;1.00;;
64966;SDS011;51710;38.732;-121.358;2023-04-01T18:10:51;3.80;;;1.50;;
64966;SDS011;51710;38.732;-121.358;2023-04-01T18:13:42;3.28;;;1.20;;
64966;SDS011;51710;38.732;-121.358;2023-04-01T18:21:55;3.67;;;1.65;;
64966;SDS011;51710;38.732;-121.358;2023-04-01T18:24:33;5.32;;;1.33;;
64966;SDS011;51710;38.732;-121.358;2023-04-01T18:27:11;8.25;;;1.38;;
64966;SDS011;51710;38.732;-121.358;2023-04-01T18:37:49;5.55;;;1.50;;
64966;SDS011;51710;38.732;-121.358;2023-04-01T18:43:08;6.70;;;1.10;;
64966;SDS011;51710;38.732;-121.358;2023-04-01T18:45:46;4.53;;;1.38;;
64966;SDS011;51710;38.732;-121.358;2023-04-01T18:51:24;2.67;;;0.90;;
64966;SDS011;51710;38.732;-121.358;2023-04-01T18:56:29;3.50;;;0.90;;
64966;SDS011;51710;38.732;-121.358;2023-04-01T19:04:15;3.70;;;1.00;;
64966;SDS011;51710;38.732;-121.358;2023-04-01T19:06:53;3.63;;;0.80;;
64966;SDS011;51710;38.732;-121.358;2023-04-01T19:14:59;4.55;;;0.95;;
64966;SDS011;51710;38.732;-121.358;2023-04-01T19:25:39;5.20;;;1.40;;
64966;SDS011;51710;38.732;-121.358;2023-04-01T19:28:20;3.80;;;1.00;;
64966;SDS011;51710;38.732;-121.358;2023-04-01T19:31:12;4.25;;;1.10;;
64966;SDS011;51710;38.732;-121.358;2023-04-01T19:33:52;5.55;;;1.00;;
64966;SDS011;51710;38.732;-121.358;2023-04-01T19:45:29;3.38;;;0.90;;
64966;SDS011;51710;38.732;-121.358;2023-04-01T19:48:05;3.80;;;1.20;;
64966;SDS011;51710;38.732;-121.358;2023-04-01T19:59:22;3.25;;;1.20;;
64966;SDS011;51710;38.732;-121.358;2023-04-01T20:04:51;4.63;;;1.08;;
64966;SDS011;51710;38.732;-121.358;2023-04-01T20:07:27;3.25;;;1.10;;
64966;SDS011;51710;38.732;-121.358;2023-04-01T20:13:00;5.53;;;1.00;;
64966;SDS011;51710;38.732;-121.358;2023-04-01T20:18:01;5.15;;;1.17;;
64966;SDS011;51710;38.732;-121.358;2023-04-01T20:20:36;1.33;;;1.00;;
64966;SDS011;51710;38.732;-121.358;2023-04-01T20:23:47;2.92;;;0.82;;
64966;SDS011;51710;38.732;-121.358;2023-04-01T20:26:25;2.08;;;0.80;;
64966;SDS011;51710;38.732;-121.358;2023-04-01T20:35:08;3.10;;;1.00;;
64966;SDS011;51710;38.732;-121.358;2023-04-01T20:41:06;4.47;;;1.10;;
64966;SDS011;51710;38.732;-121.358;2023-04-01T20:44:01;3.40;;;1.00;;
64966;SDS011;51710;38.732;-121.358;2023-04-01T20:54:48;2.35;;;1.23;;
64966;SDS011;51710;38.732;-121.358;2023-04-01T20:57:24;2.60;;;0.90;;
64966;SDS011;51710;38.732;-121.358;2023-04-01T21:00:11;3.22;;;0.77;;
64966;SDS011;51710;38.732;-121.358;2023-04-01T21:06:31;4.78;;;1.30;;
64966;SDS011;51710;38.732;-121.358;2023-04-01T21:17:11;1.80;;;0.85;;
64966;SDS011;51710;38.732;-121.358;2023-04-01T21:50:06;4.70;;;1.00;;
64966;SDS011;51710;38.732;-121.358;2023-04-01T21:52:55;2.30;;;1.05;;
64966;SDS011;51710;38.732;-121.358;2023-04-01T21:55:50;2.70;;;1.30;;
64966;SDS011;51710;38.732;-121.358;2023-04-01T22:15:18;3.95;;;1.52;;
64966;SDS011;51710;38.732;-121.358;2023-04-01T22:21:12;2.10;;;1.17;;
64966;SDS011;51710;38.732;-121.358;2023-04-01T22:26:21;3.17;;;1.15;;
64966;SDS011;51710;38.732;-121.358;2023-04-01T22:29:10;1.80;;;0.90;;
64966;SDS011;51710;38.732;-121.358;2023-04-01T22:31:44;3.83;;;1.17;;
64966;SDS011;51710;38.732;-121.358;2023-04-01T22:34:23;2.67;;;0.93;;
64966;SDS011;51710;38.732;-121.358;2023-04-01T22:37:06;3.78;;;1.30;;
64966;SDS011;51710;38.732;-121.358;2023-04-01T22:40:15;2.95;;;0.80;;
64966;SDS011;51710;38.732;-121.358;2023-04-01T22:43:03;2.28;;;1.00;;
64966;SDS011;51710;38.732;-121.358;2023-04-01T22:56:07;5.47;;;0.88;;
64966;SDS011;51710;38.732;-121.358;2023-04-01T22:58:46;2.80;;;0.90;;
64966;SDS011;51710;38.732;-121.358;2023-04-01T23:01:25;3.58;;;1.00;;
64966;SDS011;51710;38.732;-121.358;2023-04-01T23:03:56;3.00;;;1.00;;
64966;SDS011;51710;38.732;-121.358;2023-04-01T23:06:27;3.90;;;1.30;;
64966;SDS011;51710;38.732;-121.358;2023-04-01T23:16:54;2.70;;;0.85;;
64966;SDS011;51710;38.732;-121.358;2023-04-01T23:19:41;2.67;;;0.85;;
64966;SDS011;51710;38.732;-121.358;2023-04-01T23:25:15;2.90;;;1.00;;
64966;SDS011;51710;38.732;-121.358;2023-04-01T23:27:51;3.35;;;1.10;;
64966;SDS011;51710;38.732;-121.358;2023-04-01T23:33:11;5.95;;;0.90;;
64966;SDS011;51710;38.732;-121.358;2023-04-01T23:35:48;2.25;;;0.60;;
64966;SDS011;51710;38.732;-121.358;2023-04-01T23:38:17;3.60;;;0.80;;
64966;SDS011;51710;38.732;-121.358;2023-04-01T23:40:49;2.20;;;0.82;;
64966;SDS011;51710;38.732;-121.358;2023-04-01T23:43:22;2.50;;;0.80;;
64966;SDS011;51710;38.732;-121.358;2023-04-01T23:45:55;2.10;;;1.17;;
64966;SDS011;51710;38.732;-121.358;2023-04-01T23:48:28;1.60;;;0.77;;
64966;SDS011;51710;38.732;-121.358;2023-04-01T23:51:20;2.70;;;0.90;;
64966;SDS011;51710;38.732;-121.358;2023-04-01T23:54:17;4.72;;;1.20;;
64966;SDS011;51710;38.732;-121.358;2023-04-01T23:56:48;3.53;;;0.85;;
64966;SDS011;51710;38.732;-121.358;2023-04-01T23:59:18;3.28;;;0.90;;
